Terminal Aerodrome Forecast
Issued by NWS

Home | Current Version | Previous Version | Text Only | Print | Product List | Glossary On
Versions: 1 2 3 4 5 6 7 8 9 10 11 12 13 14 15
000
FTUS45 KRIW 281901 AAA
TAFCOD
TAF AMD
KCOD 281901Z 2819/2918 03008KT 6SM FU FEW100
      TEMPO 2819/2820 5SM FU
     FM282000 13009KT P6SM SCT100
     FM290300 22010G18KT P6SM FEW120 SCT200
      AMD LTD TO CLD VIS AND WIND=

USA.gov is the U.S. government's official web portal to all federal, state and local government web resources and services.